sensor_id;sensor_type;location;lat;lon;timestamp;pressure;altitude;pressure_sealevel;temperature;humidity
3206;BME280;1615;53.602;11.418;2023-02-19T00:00:04;101072.63;;;7.68;100.00
3206;BME280;1615;53.602;11.418;2023-02-19T00:02:29;101049.72;;;7.69;100.00
3206;BME280;1615;53.602;11.418;2023-02-19T00:04:54;101052.47;;;7.74;100.00
3206;BME280;1615;53.602;11.418;2023-02-19T00:07:20;101054.41;;;7.79;100.00
3206;BME280;1615;53.602;11.418;2023-02-19T00:09:45;101059.31;;;7.82;100.00
3206;BME280;1615;53.602;11.418;2023-02-19T00:12:10;101051.13;;;7.82;100.00
3206;BME280;1615;53.602;11.418;2023-02-19T00:14:36;101047.31;;;7.83;100.00
3206;BME280;1615;53.602;11.418;2023-02-19T00:17:01;101044.56;;;7.83;100.00
3206;BME280;1615;53.602;11.418;2023-02-19T00:19:27;100868.59;;;6.79;100.00
3206;BME280;1615;53.602;11.418;2023-02-19T00:21:52;100941.78;;;7.12;100.00
3206;BME280;1615;53.602;11.418;2023-02-19T00:24:20;101042.09;;;7.71;100.00
3206;BME280;1615;53.602;11.418;2023-02-19T00:26:46;101045.09;;;7.75;100.00
3206;BME280;1615;53.602;11.418;2023-02-19T00:29:14;101039.06;;;7.73;100.00
3206;BME280;1615;53.602;11.418;2023-02-19T00:31:41;101033.63;;;7.73;100.00
3206;BME280;1615;53.602;11.418;2023-02-19T00:34:06;100976.78;;;7.40;100.00
3206;BME280;1615;53.602;11.418;2023-02-19T00:36:36;101037.19;;;7.78;100.00
3206;BME280;1615;53.602;11.418;2023-02-19T00:39:03;101035.31;;;7.84;100.00
3206;BME280;1615;53.602;11.418;2023-02-19T00:41:28;101033.94;;;7.86;100.00
3206;BME280;1615;53.602;11.418;2023-02-19T00:43:58;101031.22;;;7.86;100.00
3206;BME280;1615;53.602;11.418;2023-02-19T00:46:35;100877.09;;;6.92;100.00
3206;BME280;1615;53.602;11.418;2023-02-19T00:49:01;101039.41;;;7.86;100.00
3206;BME280;1615;53.602;11.418;2023-02-19T00:51:33;101029.03;;;7.83;100.00
3206;BME280;1615;53.602;11.418;2023-02-19T00:53:59;101041.31;;;7.86;100.00
3206;BME280;1615;53.602;11.418;2023-02-19T00:56:25;101042.41;;;7.85;100.00
3206;BME280;1615;53.602;11.418;2023-02-19T00:58:51;101016.22;;;7.79;100.00
3206;BME280;1615;53.602;11.418;2023-02-19T01:01:17;101038.34;;;7.92;100.00
3206;BME280;1615;53.602;11.418;2023-02-19T01:03:44;101036.41;;;7.88;100.00
3206;BME280;1615;53.602;11.418;2023-02-19T01:06:11;101035.31;;;7.89;100.00
3206;BME280;1615;53.602;11.418;2023-02-19T01:08:37;101036.97;;;7.85;100.00
3206;BME280;1615;53.602;11.418;2023-02-19T01:11:04;101031.22;;;7.86;100.00
3206;BME280;1615;53.602;11.418;2023-02-19T01:13:30;101017.81;;;7.75;100.00
3206;BME280;1615;53.602;11.418;2023-02-19T01:16:17;101030.69;;;7.89;100.00
3206;BME280;1615;53.602;11.418;2023-02-19T01:18:43;101043.78;;;7.82;100.00
3206;BME280;1615;53.602;11.418;2023-02-19T01:21:18;101060.94;;;7.83;100.00
3206;BME280;1615;53.602;11.418;2023-02-19T01:23:44;101098.09;;;7.89;100.00
3206;BME280;1615;53.602;11.418;2023-02-19T01:26:18;101045.72;;;7.97;100.00
3206;BME280;1615;53.602;11.418;2023-02-19T01:28:44;101045.72;;;7.97;100.00
3206;BME280;1615;53.602;11.418;2023-02-19T01:31:12;101055.81;;;8.01;100.00
3206;BME280;1615;53.602;11.418;2023-02-19T01:33:38;101048.97;;;7.99;100.00
3206;BME280;1615;53.602;11.418;2023-02-19T01:36:05;101056.13;;;8.00;100.00
3206;BME280;1615;53.602;11.418;2023-02-19T01:38:30;101056.63;;;7.97;100.00
3206;BME280;1615;53.602;11.418;2023-02-19T01:41:03;101057.16;;;7.94;100.00
3206;BME280;1615;53.602;11.418;2023-02-19T01:43:32;101051.41;;;7.90;100.00
3206;BME280;1615;53.602;11.418;2023-02-19T01:45:58;101050.91;;;7.93;100.00
3206;BME280;1615;53.602;11.418;2023-02-19T01:48:29;101050.91;;;7.93;100.00
3206;BME280;1615;53.602;11.418;2023-02-19T01:51:03;101056.06;;;7.90;100.00
3206;BME280;1615;53.602;11.418;2023-02-19T01:53:33;101055.53;;;7.93;100.00
3206;BME280;1615;53.602;11.418;2023-02-19T01:56:01;101056.34;;;7.93;100.00
3206;BME280;1615;53.602;11.418;2023-02-19T01:58:30;101060.97;;;7.93;100.00
3206;BME280;1615;53.602;11.418;2023-02-19T02:00:58;101057.16;;;7.94;100.00
3206;BME280;1615;53.602;11.418;2023-02-19T02:03:24;101054.44;;;7.94;100.00
3206;BME280;1615;53.602;11.418;2023-02-19T02:05:57;100953.81;;;7.21;100.00
3206;BME280;1615;53.602;11.418;2023-02-19T02:08:26;101018.31;;;7.67;100.00
3206;BME280;1615;53.602;11.418;2023-02-19T02:11:11;101058.53;;;7.91;100.00
3206;BME280;1615;53.602;11.418;2023-02-19T02:13:37;101062.91;;;7.87;100.00
3206;BME280;1615;53.602;11.418;2023-02-19T02:19:40;101118.25;;;7.78;100.00
3206;BME280;1615;53.602;11.418;2023-02-19T02:22:19;101057.66;;;7.76;100.00
3206;BME280;1615;53.602;11.418;2023-02-19T02:25:11;101055.44;;;7.73;100.00
3206;BME280;1615;53.602;11.418;2023-02-19T02:31:05;101055.97;;;7.60;100.00
3206;BME280;1615;53.602;11.418;2023-02-19T02:33:41;101051.59;;;7.59;100.00
3206;BME280;1615;53.602;11.418;2023-02-19T02:36:19;101025.88;;;7.45;100.00
3206;BME280;1615;53.602;11.418;2023-02-19T02:38:47;101042.81;;;7.42;100.00
3206;BME280;1615;53.602;11.418;2023-02-19T02:41:14;101041.13;;;7.41;100.00
3206;BME280;1615;53.602;11.418;2023-02-19T02:43:40;101035.69;;;7.41;100.00
3206;BME280;1615;53.602;11.418;2023-02-19T02:46:05;101030.22;;;7.41;100.00
3206;BME280;1615;53.602;11.418;2023-02-19T02:48:43;101030.78;;;7.38;100.00
3206;BME280;1615;53.602;11.418;2023-02-19T02:51:18;100894.06;;;6.53;100.00
3206;BME280;1615;53.602;11.418;2023-02-19T02:53:52;101033.72;;;7.31;100.00
3206;BME280;1615;53.602;11.418;2023-02-19T02:56:38;100900.34;;;6.58;100.00
3206;BME280;1615;53.602;11.418;2023-02-19T02:59:07;101026.94;;;7.34;100.00
3206;BME280;1615;53.602;11.418;2023-02-19T03:01:47;101028.53;;;7.30;100.00
3206;BME280;1615;53.602;11.418;2023-02-19T03:04:52;101017.13;;;7.33;100.00
3206;BME280;1615;53.602;11.418;2023-02-19T03:07:46;101017.63;;;7.30;100.00
3206;BME280;1615;53.602;11.418;2023-02-19T03:13:36;100985.34;;;7.07;100.00
3206;BME280;1615;53.602;11.418;2023-02-19T03:16:25;101020.03;;;7.21;100.00
3206;BME280;1615;53.602;11.418;2023-02-19T03:19:14;101028.78;;;7.18;100.00
3206;BME280;1615;53.602;11.418;2023-02-19T03:21:46;101026.84;;;7.19;100.00
3206;BME280;1615;53.602;11.418;2023-02-19T03:24:14;101022.75;;;7.16;100.00
3206;BME280;1615;53.602;11.418;2023-02-19T03:27:01;101013.78;;;7.21;100.00
3206;BME280;1615;53.602;11.418;2023-02-19T03:29:30;101019.78;;;7.23;100.00
3206;BME280;1615;53.602;11.418;2023-02-19T03:32:19;101017.88;;;7.18;100.00
3206;BME280;1615;53.602;11.418;2023-02-19T03:34:52;101024.06;;;7.09;100.00
3206;BME280;1615;53.602;11.418;2023-02-19T03:37:26;100881.59;;;6.20;100.00
3206;BME280;1615;53.602;11.418;2023-02-19T03:39:53;101020.25;;;7.05;100.00
3206;BME280;1615;53.602;11.418;2023-02-19T03:42:48;101024.34;;;7.07;100.00
3206;BME280;1615;53.602;11.418;2023-02-19T03:45:29;101028.69;;;7.03;100.00
3206;BME280;1615;53.602;11.418;2023-02-19T03:50:45;101044.19;;;7.03;100.00
3206;BME280;1615;53.602;11.418;2023-02-19T03:53:21;101042.53;;;6.97;100.00
3206;BME280;1615;53.602;11.418;2023-02-19T03:56:08;101065.34;;;6.86;100.00
3206;BME280;1615;53.602;11.418;2023-02-19T03:58:51;101039.22;;;6.90;100.00
3206;BME280;1615;53.602;11.418;2023-02-19T04:01:26;101043.84;;;6.89;100.00
3206;BME280;1615;53.602;11.418;2023-02-19T04:04:27;101043.47;;;6.76;100.00
3206;BME280;1615;53.602;11.418;2023-02-19T04:06:54;101051.38;;;6.77;100.00
3206;BME280;1615;53.602;11.418;2023-02-19T04:09:21;101046.16;;;6.71;100.00
3206;BME280;1615;53.602;11.418;2023-02-19T04:11:49;101051.56;;;6.66;100.00
3206;BME280;1615;53.602;11.418;2023-02-19T04:14:38;101055.06;;;6.61;100.00
3206;BME280;1615;53.602;11.418;2023-02-19T04:17:10;101058.63;;;6.62;100.00
3206;BME280;1615;53.602;11.418;2023-02-19T04:19:39;101068.91;;;6.55;100.00
3206;BME280;1615;53.602;11.418;2023-02-19T04:22:07;101069.75;;;6.55;100.00
3206;BME280;1615;53.602;11.418;2023-02-19T04:24:37;101073.84;;;6.58;100.00
3206;BME280;1615;53.602;11.418;2023-02-19T04:27:04;101069.19;;;6.58;100.00
3206;BME280;1615;53.602;11.418;2023-02-19T04:29:30;101070.03;;;6.59;100.00
3206;BME280;1615;53.602;11.418;2023-02-19T04:31:55;101078.47;;;6.57;100.00
3206;BME280;1615;53.602;11.418;2023-02-19T04:34:20;101078.75;;;6.56;100.00
3206;BME280;1615;53.602;11.418;2023-02-19T04:36:46;101089.06;;;6.54;100.00
3206;BME280;1615;53.602;11.418;2023-02-19T04:39:11;101083.31;;;6.50;100.00
3206;BME280;1615;53.602;11.418;2023-02-19T04:41:37;101086.03;;;6.50;100.00
3206;BME280;1615;53.602;11.418;2023-02-19T04:44:02;101096.09;;;6.50;100.00
3206;BME280;1615;53.602;11.418;2023-02-19T04:46:27;101099.06;;;6.43;100.00
3206;BME280;1615;53.602;11.418;2023-02-19T04:48:53;101089.19;;;6.37;100.00
3206;BME280;1615;53.602;11.418;2023-02-19T04:51:18;101094.31;;;6.34;100.00
3206;BME280;1615;53.602;11.418;2023-02-19T04:53:43;101093.19;;;6.30;100.00
3206;BME280;1615;53.602;11.418;2023-02-19T04:56:13;101029.09;;;5.91;100.00
3206;BME280;1615;53.602;11.418;2023-02-19T04:58:40;101090.91;;;6.22;100.00
3206;BME280;1615;53.602;11.418;2023-02-19T05:01:06;100990.69;;;5.61;100.00
3206;BME280;1615;53.602;11.418;2023-02-19T05:03:32;101108.34;;;6.21;100.00
3206;BME280;1615;53.602;11.418;2023-02-19T05:06:19;101115.66;;;6.20;100.00
3206;BME280;1615;53.602;11.418;2023-02-19T05:08:44;101038.41;;;5.73;100.00
3206;BME280;1615;53.602;11.418;2023-02-19T05:11:11;101120.88;;;6.22;100.00
3206;BME280;1615;53.602;11.418;2023-02-19T05:13:37;100997.00;;;5.45;100.00
3206;BME280;1615;53.602;11.418;2023-02-19T05:16:07;101140.81;;;6.27;100.00
3206;BME280;1615;53.602;11.418;2023-02-19T05:18:34;101118.75;;;6.29;100.00
3206;BME280;1615;53.602;11.418;2023-02-19T05:20:59;101118.97;;;6.22;100.00
3206;BME280;1615;53.602;11.418;2023-02-19T05:23:28;101120.09;;;6.26;100.00
3206;BME280;1615;53.602;11.418;2023-02-19T05:25:53;101118.75;;;6.29;100.00
3206;BME280;1615;53.602;11.418;2023-02-19T05:28:19;101126.97;;;6.34;100.00
3206;BME280;1615;53.602;11.418;2023-02-19T05:30:47;101127.81;;;6.34;100.00
3206;BME280;1615;53.602;11.418;2023-02-19T05:33:13;101131.09;;;6.36;100.00
3206;BME280;1615;53.602;11.418;2023-02-19T05:35:40;101134.41;;;6.38;100.00
3206;BME280;1615;53.602;11.418;2023-02-19T05:38:06;101110.03;;;6.27;100.00
3206;BME280;1615;53.602;11.418;2023-02-19T05:40:32;101136.53;;;6.36;100.00
3206;BME280;1615;53.602;11.418;2023-02-19T05:42:57;101146.09;;;6.39;100.00
3206;BME280;1615;53.602;11.418;2023-02-19T05:45:23;101140.94;;;6.42;100.00
3206;BME280;1615;53.602;11.418;2023-02-19T05:47:48;101148.31;;;6.42;100.00
3206;BME280;1615;53.602;11.418;2023-02-19T05:50:17;101149.69;;;6.44;100.00
3206;BME280;1615;53.602;11.418;2023-02-19T05:52:42;101145.91;;;6.45;100.00
3206;BME280;1615;53.602;11.418;2023-02-19T05:55:08;101088.03;;;6.07;100.00
3206;BME280;1615;53.602;11.418;2023-02-19T05:57:39;101040.53;;;5.71;100.00
3206;BME280;1615;53.602;11.418;2023-02-19T06:00:05;101159.75;;;6.44;100.00
3206;BME280;1615;53.602;11.418;2023-02-19T06:02:31;101157.63;;;6.46;100.00
3206;BME280;1615;53.602;11.418;2023-02-19T06:04:56;101151.16;;;6.30;100.00
3206;BME280;1615;53.602;11.418;2023-02-19T06:07:21;101173.31;;;6.39;100.00
3206;BME280;1615;53.602;11.418;2023-02-19T06:09:49;101040.50;;;5.45;100.00
3206;BME280;1615;53.602;11.418;2023-02-19T06:12:15;101188.72;;;6.28;100.00
3206;BME280;1615;53.602;11.418;2023-02-19T06:14:40;101182.69;;;6.26;100.00
3206;BME280;1615;53.602;11.418;2023-02-19T06:17:05;101197.69;;;6.24;100.00
3206;BME280;1615;53.602;11.418;2023-02-19T06:19:31;101197.28;;;6.15;100.00
3206;BME280;1615;53.602;11.418;2023-02-19T06:21:56;101201.31;;;6.13;100.00
3206;BME280;1615;53.602;11.418;2023-02-19T06:24:21;101205.13;;;6.12;100.00
3206;BME280;1615;53.602;11.418;2023-02-19T06:26:46;101202.41;;;6.12;100.00
3206;BME280;1615;53.602;11.418;2023-02-19T06:29:12;101199.69;;;6.12;100.00
3206;BME280;1615;53.602;11.418;2023-02-19T06:31:37;101214.38;;;6.11;100.00
3206;BME280;1615;53.602;11.418;2023-02-19T06:34:03;101217.63;;;6.08;100.00
3206;BME280;1615;53.602;11.418;2023-02-19T06:36:29;101220.00;;;6.04;100.00
3206;BME280;1615;53.602;11.418;2023-02-19T06:38:58;101210.66;;;5.95;100.00
3206;BME280;1615;53.602;11.418;2023-02-19T06:41:24;101163.19;;;5.70;100.00
3206;BME280;1615;53.602;11.418;2023-02-19T06:43:49;101233.03;;;6.02;100.00
3206;BME280;1615;53.602;11.418;2023-02-19T06:46:14;101243.09;;;6.02;100.00
3206;BME280;1615;53.602;11.418;2023-02-19T06:48:42;101235.75;;;6.02;100.00
3206;BME280;1615;53.602;11.418;2023-02-19T06:51:10;101231.72;;;6.05;100.00
3206;BME280;1615;53.602;11.418;2023-02-19T06:53:37;101241.75;;;6.04;100.00
3206;BME280;1615;53.602;11.418;2023-02-19T06:56:18;101253.97;;;6.02;100.00
3206;BME280;1615;53.602;11.418;2023-02-19T06:58:44;101264.53;;;5.98;100.00
3206;BME280;1615;53.602;11.418;2023-02-19T07:01:10;101261.56;;;6.00;100.00
3206;BME280;1615;53.602;11.418;2023-02-19T07:03:35;101271.38;;;6.01;100.00
3206;BME280;1615;53.602;11.418;2023-02-19T07:06:01;101267.34;;;6.03;100.00
3206;BME280;1615;53.602;11.418;2023-02-19T07:08:26;101278.81;;;6.05;100.00
3206;BME280;1615;53.602;11.418;2023-02-19T07:10:56;101284.81;;;6.07;100.00
3206;BME280;1615;53.602;11.418;2023-02-19T07:13:23;101287.28;;;6.09;100.00
3206;BME280;1615;53.602;11.418;2023-02-19T07:15:49;101312.66;;;6.14;100.00
3206;BME280;1615;53.602;11.418;2023-02-19T07:18:14;101286.78;;;6.12;100.00
3206;BME280;1615;53.602;11.418;2023-02-19T07:20:40;101294.38;;;6.10;100.00
3206;BME280;1615;53.602;11.418;2023-02-19T07:23:05;101305.59;;;6.13;100.00
3206;BME280;1615;53.602;11.418;2023-02-19T07:25:30;101312.34;;;6.11;100.00
3206;BME280;1615;53.602;11.418;2023-02-19T07:27:56;101266.00;;;5.84;100.00
3206;BME280;1615;53.602;11.418;2023-02-19T07:30:21;101317.63;;;6.17;100.00
3206;BME280;1615;53.602;11.418;2023-02-19T07:32:46;101328.06;;;6.25;100.00
3206;BME280;1615;53.602;11.418;2023-02-19T07:35:13;101327.34;;;6.30;100.00
3206;BME280;1615;53.602;11.418;2023-02-19T07:37:39;101333.41;;;6.37;100.00
3206;BME280;1615;53.602;11.418;2023-02-19T07:40:05;101325.31;;;6.42;100.00
3206;BME280;1615;53.602;11.418;2023-02-19T07:42:31;101339.81;;;6.47;100.00
3206;BME280;1615;53.602;11.418;2023-02-19T07:44:56;101008.75;;;4.53;100.00
3206;BME280;1615;53.602;11.418;2023-02-19T07:47:22;101340.78;;;6.58;100.00
3206;BME280;1615;53.602;11.418;2023-02-19T07:49:47;101347.69;;;6.65;100.00
3206;BME280;1615;53.602;11.418;2023-02-19T07:52:12;101347.94;;;6.64;100.00
3206;BME280;1615;53.602;11.418;2023-02-19T07:54:38;101356.41;;;6.67;100.00
3206;BME280;1615;53.602;11.418;2023-02-19T07:57:03;101358.41;;;6.72;100.00
3206;BME280;1615;53.602;11.418;2023-02-19T07:59:28;101365.03;;;6.81;100.00
3206;BME280;1615;53.602;11.418;2023-02-19T08:01:54;101370.06;;;6.89;100.00
3206;BME280;1615;53.602;11.418;2023-02-19T08:04:38;101363.88;;;6.98;100.00
3206;BME280;1615;53.602;11.418;2023-02-19T08:07:03;101368.31;;;7.04;100.00
3206;BME280;1615;53.602;11.418;2023-02-19T08:09:29;101380.91;;;7.10;100.00
3206;BME280;1615;53.602;11.418;2023-02-19T08:11:55;101385.09;;;7.18;100.00
3206;BME280;1615;53.602;11.418;2023-02-19T08:14:39;101382.47;;;7.28;100.00
3206;BME280;1615;53.602;11.418;2023-02-19T08:17:04;101390.72;;;7.33;100.00
3206;BME280;1615;53.602;11.418;2023-02-19T08:19:29;101392.41;;;7.39;100.00
3206;BME280;1615;53.602;11.418;2023-02-19T08:21:55;101399.00;;;7.43;100.00
3206;BME280;1615;53.602;11.418;2023-02-19T08:24:20;101345.53;;;7.15;100.00
3206;BME280;1615;53.602;11.418;2023-02-19T08:26:45;101402.00;;;7.41;100.00
3206;BME280;1615;53.602;11.418;2023-02-19T08:29:11;101408.16;;;7.32;100.00
3206;BME280;1615;53.602;11.418;2023-02-19T08:31:36;101415.75;;;7.30;100.00
3206;BME280;1615;53.602;11.418;2023-02-19T08:34:01;101418.78;;;7.28;100.00
3206;BME280;1615;53.602;11.418;2023-02-19T08:36:27;101424.97;;;7.24;100.00
3206;BME280;1615;53.602;11.418;2023-02-19T08:38:52;101426.91;;;7.23;100.00
3206;BME280;1615;53.602;11.418;2023-02-19T08:41:18;101418.13;;;7.21;100.00
3206;BME280;1615;53.602;11.418;2023-02-19T08:43:43;101421.63;;;7.17;100.00
3206;BME280;1615;53.602;11.418;2023-02-19T08:46:09;101427.84;;;7.12;100.00
3206;BME280;1615;53.602;11.418;2023-02-19T08:48:36;101425.44;;;7.16;100.00
3206;BME280;1615;53.602;11.418;2023-02-19T08:51:04;101434.41;;;7.16;100.00
3206;BME280;1615;53.602;11.418;2023-02-19T08:53:33;101434.16;;;7.18;100.00
3206;BME280;1615;53.602;11.418;2023-02-19T08:56:03;101409.44;;;7.03;100.00
3206;BME280;1615;53.602;11.418;2023-02-19T08:58:29;101445.75;;;7.30;100.00
3206;BME280;1615;53.602;11.418;2023-02-19T09:00:54;101420.09;;;7.26;100.00
3206;BME280;1615;53.602;11.418;2023-02-19T09:03:19;101446.91;;;7.34;100.00
3206;BME280;1615;53.602;11.418;2023-02-19T09:05:45;101458.91;;;7.33;100.00
3206;BME280;1615;53.602;11.418;2023-02-19T09:08:13;101453.44;;;7.33;100.00
3206;BME280;1615;53.602;11.418;2023-02-19T09:10:40;101461.38;;;7.34;100.00
3206;BME280;1615;53.602;11.418;2023-02-19T09:13:05;101462.72;;;7.32;100.00
3206;BME280;1615;53.602;11.418;2023-02-19T09:15:30;101462.84;;;7.42;100.00
3206;BME280;1615;53.602;11.418;2023-02-19T09:17:57;101462.84;;;7.42;100.00
3206;BME280;1615;53.602;11.418;2023-02-19T09:20:22;101470.75;;;7.43;100.00
3206;BME280;1615;53.602;11.418;2023-02-19T09:22:48;101477.03;;;7.44;100.00
3206;BME280;1615;53.602;11.418;2023-02-19T09:25:13;101429.88;;;7.22;100.00
3206;BME280;1615;53.602;11.418;2023-02-19T09:27:38;101483.09;;;7.51;100.00
3206;BME280;1615;53.602;11.418;2023-02-19T09:30:04;101482.91;;;7.57;100.00
3206;BME280;1615;53.602;11.418;2023-02-19T09:32:30;101487.66;;;7.67;100.00
3206;BME280;1615;53.602;11.418;2023-02-19T09:34:55;101498.06;;;7.70;100.00
3206;BME280;1615;53.602;11.418;2023-02-19T09:37:24;101488.84;;;7.76;100.00
3206;BME280;1615;53.602;11.418;2023-02-19T09:39:50;101496.53;;;7.79;100.00
3206;BME280;1615;53.602;11.418;2023-02-19T09:42:18;101508.78;;;7.76;100.00
3206;BME280;1615;53.602;11.418;2023-02-19T09:44:47;101507.44;;;7.79;100.00
3206;BME280;1615;53.602;11.418;2023-02-19T09:47:25;101512.38;;;7.82;100.00
3206;BME280;1615;53.602;11.418;2023-02-19T09:50:13;101524.94;;;7.83;100.00
3206;BME280;1615;53.602;11.418;2023-02-19T09:55:36;101524.13;;;7.82;100.00
3206;BME280;1615;53.602;11.418;2023-02-19T09:58:24;101538.16;;;7.91;100.00
3206;BME280;1615;53.602;11.418;2023-02-19T10:00:52;101525.78;;;7.83;100.00
3206;BME280;1615;53.602;11.418;2023-02-19T10:03:38;101533.81;;;7.95;100.00
3206;BME280;1615;53.602;11.418;2023-02-19T10:08:45;101544.22;;;7.98;100.00
3206;BME280;1615;53.602;11.418;2023-02-19T10:11:12;101540.19;;;8.05;100.00
3206;BME280;1615;53.602;11.418;2023-02-19T10:13:44;101549.97;;;8.01;100.00
3206;BME280;1615;53.602;11.418;2023-02-19T10:16:17;101562.31;;;8.04;100.00
3206;BME280;1615;53.602;11.418;2023-02-19T10:18:44;101414.91;;;7.03;100.00
3206;BME280;1615;53.602;11.418;2023-02-19T10:21:17;101572.31;;;7.93;100.00
3206;BME280;1615;53.602;11.418;2023-02-19T10:23:53;101575.56;;;8.17;100.00
3206;BME280;1615;53.602;11.418;2023-02-19T10:26:21;101579.75;;;8.03;100.00
3206;BME280;1615;53.602;11.418;2023-02-19T10:28:46;101581.88;;;7.96;100.00
3206;BME280;1615;53.602;11.418;2023-02-19T10:31:17;101577.59;;;8.05;100.00
3206;BME280;1615;53.602;11.418;2023-02-19T10:33:48;101569.59;;;8.20;100.00
3206;BME280;1615;53.602;11.418;2023-02-19T10:36:24;101573.47;;;8.24;100.00
3206;BME280;1615;53.602;11.418;2023-02-19T10:38:51;101585.88;;;8.36;100.00
3206;BME280;1615;53.602;11.418;2023-02-19T10:41:19;101587.88;;;8.46;100.00
3206;BME280;1615;53.602;11.418;2023-02-19T10:44:16;101594.03;;;8.63;100.00
3206;BME280;1615;53.602;11.418;2023-02-19T10:46:42;101588.66;;;8.73;100.00
3206;BME280;1615;53.602;11.418;2023-02-19T10:49:47;101602.91;;;8.75;100.00
3206;BME280;1615;53.602;11.418;2023-02-19T10:52:20;101613.81;;;8.70;100.00
3206;BME280;1615;53.602;11.418;2023-02-19T10:54:54;101624.75;;;8.70;100.00
3206;BME280;1615;53.602;11.418;2023-02-19T10:57:24;101507.63;;;7.99;100.00
3206;BME280;1615;53.602;11.418;2023-02-19T11:02:26;101643.41;;;8.51;100.00
3206;BME280;1615;53.602;11.418;2023-02-19T11:07:45;101625.53;;;8.70;100.00
3206;BME280;1615;53.602;11.418;2023-02-19T11:10:37;101651.81;;;8.45;100.00
3206;BME280;1615;53.602;11.418;2023-02-19T11:13:05;101651.91;;;8.28;100.00
3206;BME280;1615;53.602;11.418;2023-02-19T11:15:33;101630.41;;;8.37;100.00
3206;BME280;1615;53.602;11.418;2023-02-19T11:20:38;101656.31;;;8.56;100.00
3206;BME280;1615;53.602;11.418;2023-02-19T11:23:17;101656.84;;;8.58;100.00
3206;BME280;1615;53.602;11.418;2023-02-19T11:25:45;101672.69;;;8.56;100.00
3206;BME280;1615;53.602;11.418;2023-02-19T11:28:34;101664.13;;;8.47;100.00
3206;BME280;1615;53.602;11.418;2023-02-19T11:36:37;101672.19;;;8.59;100.00
3206;BME280;1615;53.602;11.418;2023-02-19T11:44:44;101672.78;;;8.39;100.00
3206;BME280;1615;53.602;11.418;2023-02-19T11:47:36;101674.75;;;8.44;100.00
3206;BME280;1615;53.602;11.418;2023-02-19T12:10:01;101677.13;;;8.62;100.00
3206;BME280;1615;53.602;11.418;2023-02-19T12:17:46;101690.16;;;8.81;100.00
3206;BME280;1615;53.602;11.418;2023-02-19T12:20:41;101696.53;;;8.87;100.00
3206;BME280;1615;53.602;11.418;2023-02-19T12:34:08;101712.50;;;9.00;100.00
3206;BME280;1615;53.602;11.418;2023-02-19T12:45:01;101717.00;;;9.16;100.00
3206;BME280;1615;53.602;11.418;2023-02-19T12:47:35;101704.97;;;9.12;100.00
3206;BME280;1615;53.602;11.418;2023-02-19T12:52:40;101721.28;;;9.02;100.00
3206;BME280;1615;53.602;11.418;2023-02-19T12:55:20;101709.88;;;9.15;100.00
3206;BME280;1615;53.602;11.418;2023-02-19T12:57:47;101768.72;;;9.17;100.00
3206;BME280;1615;53.602;11.418;2023-02-19T13:00:28;101731.81;;;9.20;100.00
3206;BME280;1615;53.602;11.418;2023-02-19T13:03:01;101650.50;;;8.79;100.00
3206;BME280;1615;53.602;11.418;2023-02-19T13:08:38;101733.50;;;9.26;100.00
3206;BME280;1615;53.602;11.418;2023-02-19T13:11:26;101733.81;;;9.29;100.00
3206;BME280;1615;53.602;11.418;2023-02-19T13:13:57;101738.22;;;9.35;100.00
3206;BME280;1615;53.602;11.418;2023-02-19T13:16:26;101725.72;;;9.44;100.00
3206;BME280;1615;53.602;11.418;2023-02-19T13:18:59;101674.06;;;9.16;100.00
3206;BME280;1615;53.602;11.418;2023-02-19T13:21:28;101722.22;;;9.54;100.00
3206;BME280;1615;53.602;11.418;2023-02-19T13:24:19;101718.97;;;9.57;100.00
3206;BME280;1615;53.602;11.418;2023-02-19T13:30:20;101711.88;;;9.56;100.00
3206;BME280;1615;53.602;11.418;2023-02-19T13:38:48;101713.56;;;9.67;100.00
3206;BME280;1615;53.602;11.418;2023-02-19T13:41:20;101715.25;;;9.73;100.00
3206;BME280;1615;53.602;11.418;2023-02-19T13:43:56;101713.03;;;9.70;100.00
3206;BME280;1615;53.602;11.418;2023-02-19T13:46:23;101705.69;;;9.75;100.00
3206;BME280;1615;53.602;11.418;2023-02-19T13:51:54;101712.56;;;9.78;100.00
3206;BME280;1615;53.602;11.418;2023-02-19T13:54:23;101704.34;;;9.78;100.00
3206;BME280;1615;53.602;11.418;2023-02-19T13:56:49;101699.09;;;9.71;100.00
3206;BME280;1615;53.602;11.418;2023-02-19T13:59:37;101693.72;;;9.91;100.00
3206;BME280;1615;53.602;11.418;2023-02-19T14:14:49;101711.31;;;9.59;100.00
3206;BME280;1615;53.602;11.418;2023-02-19T14:17:37;101707.56;;;9.70;100.00
3206;BME280;1615;53.602;11.418;2023-02-19T14:23:00;101711.94;;;9.66;100.00
3206;BME280;1615;53.602;11.418;2023-02-19T14:25:40;101714.63;;;9.61;100.00
3206;BME280;1615;53.602;11.418;2023-02-19T14:33:22;101599.56;;;8.68;100.00
3206;BME280;1615;53.602;11.418;2023-02-19T14:35:53;101725.44;;;9.41;100.00
3206;BME280;1615;53.602;11.418;2023-02-19T14:38:34;101819.03;;;9.43;100.00
3206;BME280;1615;53.602;11.418;2023-02-19T14:41:01;101731.75;;;9.41;100.00
3206;BME280;1615;53.602;11.418;2023-02-19T14:43:27;101732.56;;;9.42;100.00
3206;BME280;1615;53.602;11.418;2023-02-19T14:45:58;101683.63;;;9.14;100.00
3206;BME280;1615;53.602;11.418;2023-02-19T14:48:37;101726.84;;;9.48;100.00
3206;BME280;1615;53.602;11.418;2023-02-19T14:51:07;101717.84;;;9.53;100.00
3206;BME280;1615;53.602;11.418;2023-02-19T14:53:38;101302.59;;;7.01;100.00
3206;BME280;1615;53.602;11.418;2023-02-19T14:56:21;101717.34;;;9.56;100.00
3206;BME280;1615;53.602;11.418;2023-02-19T14:59:05;101719.50;;;9.54;100.00
3206;BME280;1615;53.602;11.418;2023-02-19T15:01:31;101571.38;;;8.62;100.00
3206;BME280;1615;53.602;11.418;2023-02-19T15:03:56;101713.75;;;9.55;100.00
3206;BME280;1615;53.602;11.418;2023-02-19T15:06:22;101723.06;;;9.54;100.00
3206;BME280;1615;53.602;11.418;2023-02-19T15:08:55;101723.28;;;9.48;100.00
3206;BME280;1615;53.602;11.418;2023-02-19T15:11:24;101726.03;;;9.48;100.00
3206;BME280;1615;53.602;11.418;2023-02-19T15:13:57;101722.75;;;9.46;100.00
3206;BME280;1615;53.602;11.418;2023-02-19T15:16:24;101718.91;;;9.47;100.00